Time;durP1;ratioP1;P1;durP2;ratioP2;P2;SDS_P1;SDS_P2;PMS_P1;PMS_P2;Temp;Humidity;BMP_temperature;BMP_pressure;BME280_temperature;BME280_humidity;BME280_pressure;Samples;Min_cycle;Max_cycle;Signal;HPM_P1;HPM_P2
2024/04/05 00:01:16;;;;;;;4.32;0.88;;;9.50;98.20;;;;;;5012882;28;20040;-67
2024/04/05 00:03:41;;;;;;;2.92;0.68;;;;;;;;;;5015935;28;20145;-67
2024/04/05 00:06:07;;;;;;;2.83;0.90;;;9.40;98.30;;;;;;5013684;28;20022;-67
2024/04/05 00:08:33;;;;;;;2.90;1.00;;;9.30;98.40;;;;;;5013920;28;20418;-67
2024/04/05 00:10:59;;;;;;;3.50;1.05;;;9.30;98.50;;;;;;5013539;28;20088;-67
2024/04/05 00:13:24;;;;;;;4.18;1.67;;;9.30;98.50;;;;;;5015814;28;20062;-67
2024/04/05 00:15:51;;;;;;;2.88;1.05;;;9.30;98.70;;;;;;5015213;28;20361;-67
2024/04/05 00:18:18;;;;;;;1.88;0.90;;;9.30;98.50;;;;;;5016875;28;20034;-67
2024/04/05 00:20:44;;;;;;;3.35;0.93;;;9.20;98.70;;;;;;5014209;28;20033;-67
2024/04/05 00:23:09;;;;;;;6.22;1.40;;;9.20;98.70;;;;;;5019765;28;20513;-67
2024/04/05 00:25:35;;;;;;;1.90;0.95;;;9.30;98.80;;;;;;5013403;28;20037;-68
2024/04/05 00:28:00;;;;;;;1.70;0.60;;;9.30;98.80;;;;;;5015130;28;20025;-67
2024/04/05 00:30:26;;;;;;;1.55;0.77;;;9.30;98.80;;;;;;5016437;28;20044;-67
2024/04/05 00:32:51;;;;;;;4.25;1.10;;;9.40;98.90;;;;;;5013807;28;20103;-67
2024/04/05 00:35:17;;;;;;;3.08;0.95;;;9.40;98.60;;;;;;5014789;28;20163;-68
2024/04/05 00:37:42;;;;;;;5.75;1.00;;;9.40;98.60;;;;;;5013412;28;20045;-67
2024/04/05 00:40:08;;;;;;;3.33;0.93;;;9.30;98.80;;;;;;5014735;28;20051;-67
2024/04/05 00:42:34;;;;;;;1.20;0.80;;;9.40;98.90;;;;;;5012446;28;20416;-68
2024/04/05 00:45:00;;;;;;;4.53;1.42;;;9.40;98.80;;;;;;5016934;28;20120;-67
2024/04/05 00:47:26;;;;;;;4.32;1.33;;;9.40;98.80;;;;;;5019512;28;20129;-67
2024/04/05 00:49:52;;;;;;;5.93;1.88;;;;;;;;;;5021013;28;20033;-67
2024/04/05 00:52:17;;;;;;;2.78;1.30;;;9.40;98.80;;;;;;5012974;28;20124;-67
2024/04/05 00:54:43;;;;;;;5.22;1.38;;;9.50;98.90;;;;;;5017717;28;20121;-68
2024/04/05 00:57:09;;;;;;;5.30;1.35;;;9.50;98.80;;;;;;5014018;28;20394;-68
2024/04/05 00:59:36;;;;;;;5.47;1.88;;;;;;;;;;5015808;28;20537;-66
2024/04/05 01:02:01;;;;;;;1.38;0.80;;;9.50;98.70;;;;;;5019705;28;20037;-66
2024/04/05 01:04:27;;;;;;;4.65;1.45;;;9.50;98.80;;;;;;5020708;28;20044;-68
2024/04/05 01:06:53;;;;;;;12.20;1.77;;;9.60;98.80;;;;;;5012419;28;20026;-68
2024/04/05 01:09:19;;;;;;;4.90;1.15;;;9.60;98.80;;;;;;5012814;28;20041;-67
2024/04/05 01:11:58;;;;;;;4.18;1.10;;;9.70;98.60;;;;;;5012828;28;20453;-66
2024/04/05 01:14:24;;;;;;;7.95;1.70;;;9.60;98.60;;;;;;5010433;28;20110;-66
2024/04/05 01:16:50;;;;;;;4.68;1.10;;;9.60;98.60;;;;;;5019177;28;20434;-66
2024/04/05 01:19:16;;;;;;;5.30;1.42;;;9.60;98.60;;;;;;5016287;28;20348;-66
2024/04/05 01:21:45;;;;;;;4.15;1.48;;;9.60;98.60;;;;;;5016090;28;20030;-67
2024/04/05 01:24:11;;;;;;;6.80;1.60;;;9.50;98.70;;;;;;5015352;28;20044;-66
2024/04/05 01:26:36;;;;;;;7.10;1.40;;;9.50;98.80;;;;;;5012889;28;20423;-66
2024/04/05 01:29:02;;;;;;;5.32;1.52;;;9.50;98.70;;;;;;5014277;28;20360;-67
2024/04/05 01:31:27;;;;;;;3.90;1.67;;;9.50;98.70;;;;;;5018431;28;20037;-66
2024/04/05 01:33:54;;;;;;;4.03;1.13;;;9.50;98.70;;;;;;5016644;28;20041;-66
2024/04/05 01:36:19;;;;;;;4.18;2.38;;;9.40;98.70;;;;;;5016098;28;20414;-67
2024/04/05 01:38:45;;;;;;;4.35;1.38;;;9.60;98.80;;;;;;5015069;28;20109;-66
2024/04/05 01:41:10;;;;;;;4.68;1.13;;;9.70;98.40;;;;;;5016010;28;20421;-66
2024/04/05 01:43:36;;;;;;;5.95;1.65;;;9.70;98.30;;;;;;5014253;28;20029;-66
2024/04/05 01:46:01;;;;;;;7.72;1.48;;;9.60;98.30;;;;;;5016786;28;20223;-66
2024/04/05 01:48:27;;;;;;;4.25;1.30;;;9.60;98.40;;;;;;5023884;28;20203;-67
2024/04/05 01:50:52;;;;;;;4.53;1.10;;;9.60;98.40;;;;;;5020305;28;20041;-67
2024/04/05 01:53:17;;;;;;;6.22;1.40;;;9.50;98.20;;;;;;5017441;28;20033;-67
2024/04/05 01:55:43;;;;;;;8.38;1.45;;;9.50;98.50;;;;;;5013918;28;20444;-67
2024/04/05 01:58:10;;;;;;;2.53;0.88;;;9.50;98.60;;;;;;5012809;28;20037;-67
2024/04/05 02:00:36;;;;;;;4.70;1.30;;;9.40;98.60;;;;;;5021666;28;20116;-67
2024/04/05 02:03:01;;;;;;;6.05;1.23;;;9.40;98.60;;;;;;5018133;28;20526;-68
2024/04/05 02:05:27;;;;;;;8.30;1.95;;;9.40;98.70;;;;;;5020992;28;20039;-68
2024/04/05 02:07:52;;;;;;;3.83;1.55;;;9.30;98.70;;;;;;5011448;28;20080;-68
2024/04/05 02:10:18;;;;;;;2.78;1.15;;;9.20;98.80;;;;;;5015043;28;20056;-68
2024/04/05 02:12:43;;;;;;;10.43;1.27;;;9.10;98.90;;;;;;5017633;28;20044;-68
2024/04/05 02:15:09;;;;;;;9.90;2.13;;;9.20;99.40;;;;;;5019024;28;20033;-68
2024/04/05 02:17:34;;;;;;;2.30;0.98;;;9.30;98.90;;;;;;5014720;28;20106;-68
2024/04/05 02:19:59;;;;;;;3.88;1.02;;;9.10;98.80;;;;;;5017807;28;20045;-68
2024/04/05 02:22:25;;;;;;;4.97;1.33;;;9.00;99.00;;;;;;5016488;28;20053;-68
2024/04/05 02:24:50;;;;;;;7.38;2.15;;;9.00;99.20;;;;;;5012382;28;20060;-67
2024/04/05 02:27:16;;;;;;;3.47;1.17;;;8.90;99.30;;;;;;5013734;28;20399;-68
2024/04/05 02:29:42;;;;;;;4.15;1.15;;;8.90;99.40;;;;;;5016558;28;20032;-68
2024/04/05 02:32:07;;;;;;;6.85;1.15;;;8.90;99.50;;;;;;5014924;28;20034;-68
2024/04/05 02:34:33;;;;;;;6.25;1.58;;;8.90;99.50;;;;;;5016495;28;20041;-68
2024/04/05 02:36:58;;;;;;;4.18;1.08;;;8.80;99.30;;;;;;5012893;28;20041;-68
2024/04/05 02:39:24;;;;;;;3.22;1.30;;;8.70;99.50;;;;;;5014004;28;20140;-68
2024/04/05 02:41:49;;;;;;;8.00;1.65;;;8.80;99.40;;;;;;5023751;28;20096;-68
2024/04/05 02:44:15;;;;;;;2.95;1.02;;;8.90;99.30;;;;;;5017590;28;20080;-68
2024/04/05 02:46:44;;;;;;;4.72;1.20;;;8.80;99.40;;;;;;5019267;28;20029;-67
2024/04/05 02:49:09;;;;;;;4.07;1.42;;;8.80;99.20;;;;;;5022499;28;20201;-67
2024/04/05 02:51:35;;;;;;;3.55;1.17;;;8.80;99.20;;;;;;5022339;28;20029;-68
2024/04/05 02:54:01;;;;;;;2.58;1.13;;;8.90;99.10;;;;;;5015410;28;20278;-68
2024/04/05 02:56:26;;;;;;;5.28;1.60;;;8.80;99.10;;;;;;5016830;28;20030;-67
2024/04/05 02:58:52;;;;;;;9.40;1.40;;;8.90;98.90;;;;;;5020513;28;20389;-68
2024/04/05 03:01:17;;;;;;;2.70;1.42;;;8.80;98.80;;;;;;5018258;28;20036;-68
2024/04/05 03:03:45;;;;;;;3.58;0.98;;;8.80;99.00;;;;;;5019662;28;20049;-67
2024/04/05 03:06:11;;;;;;;3.05;1.35;;;8.80;98.80;;;;;;5017488;28;20114;-68
2024/04/05 03:08:36;;;;;;;3.75;1.35;;;8.80;98.90;;;;;;5022669;28;20029;-68
2024/04/05 03:11:02;;;;;;;5.18;0.88;;;8.60;98.80;;;;;;5020178;28;20423;-67
2024/04/05 03:13:27;;;;;;;7.10;1.40;;;8.60;98.90;;;;;;5015188;28;20033;-68
2024/04/05 03:15:53;;;;;;;3.97;1.30;;;8.60;99.10;;;;;;5010167;28;20034;-67
2024/04/05 03:18:18;;;;;;;1.85;1.20;;;8.60;99.10;;;;;;5020155;28;20042;-67
2024/04/05 03:20:44;;;;;;;8.07;1.38;;;8.60;99.20;;;;;;5022433;28;20025;-67
2024/04/05 03:23:10;;;;;;;1.95;1.05;;;8.50;99.10;;;;;;5014593;28;20022;-68
2024/04/05 03:25:37;;;;;;;4.15;1.40;;;8.50;99.10;;;;;;5014611;28;20451;-68
2024/04/05 03:28:03;;;;;;;4.25;1.52;;;8.50;99.30;;;;;;5024047;28;20094;-67
2024/04/05 03:30:28;;;;;;;4.40;1.17;;;8.50;99.30;;;;;;5018462;28;20116;-67
2024/04/05 03:32:54;;;;;;;5.32;1.20;;;8.60;99.40;;;;;;5024139;28;20198;-67
2024/04/05 03:35:19;;;;;;;2.58;1.20;;;8.60;99.10;;;;;;5022091;28;20046;-68
2024/04/05 03:37:48;;;;;;;6.75;1.63;;;8.60;99.10;;;;;;5021519;28;20037;-68
2024/04/05 03:40:13;;;;;;;2.95;1.30;;;8.70;99.00;;;;;;5020445;28;20114;-68
2024/04/05 03:42:38;;;;;;;5.00;1.33;;;8.80;99.00;;;;;;5013031;28;20128;-66
2024/04/05 03:45:04;;;;;;;6.07;1.38;;;8.80;98.80;;;;;;5013335;28;20473;-66
2024/04/05 03:47:30;;;;;;;2.80;1.08;;;8.70;98.80;;;;;;5006480;28;20030;-66
2024/04/05 03:49:55;;;;;;;4.10;0.98;;;8.70;98.90;;;;;;5017951;28;20225;-66
2024/04/05 03:52:21;;;;;;;3.53;1.73;;;8.80;98.60;;;;;;5017666;28;20362;-66
2024/04/05 03:54:46;;;;;;;3.25;0.88;;;8.80;98.60;;;;;;5019385;28;20117;-66
2024/04/05 03:57:12;;;;;;;6.00;1.40;;;8.80;98.60;;;;;;5015929;28;20026;-67
2024/04/05 03:59:37;;;;;;;4.05;1.13;;;8.80;98.70;;;;;;5015856;28;20109;-66
2024/04/05 04:02:03;;;;;;;6.10;1.17;;;8.80;98.40;;;;;;5015488;28;20498;-66
2024/04/05 04:04:28;;;;;;;3.72;1.27;;;8.90;98.30;;;;;;5021250;28;20064;-66
2024/04/05 04:06:54;;;;;;;6.97;1.40;;;8.90;98.00;;;;;;5015465;28;20061;-66
2024/04/05 04:09:20;;;;;;;7.05;1.67;;;8.80;98.10;;;;;;5015197;28;20037;-66
2024/04/05 04:11:45;;;;;;;2.80;1.15;;;8.80;98.20;;;;;;5016884;28;20726;-66
2024/04/05 04:14:13;;;;;;;3.42;1.23;;;8.90;97.80;;;;;;5012555;28;20442;-66
2024/04/05 04:16:40;;;;;;;1.42;0.80;;;8.90;97.70;;;;;;5015374;28;20100;-66
2024/04/05 04:19:07;;;;;;;1.67;0.85;;;8.80;97.70;;;;;;5016342;28;20029;-66
2024/04/05 04:21:32;;;;;;;4.07;1.83;;;8.80;97.90;;;;;;5014616;28;20108;-66
2024/04/05 04:23:58;;;;;;;4.25;1.40;;;8.80;97.90;;;;;;5015039;28;20140;-66
2024/04/05 04:26:24;;;;;;;4.38;1.15;;;8.80;97.90;;;;;;5013227;28;20029;-66
2024/04/05 04:28:50;;;;;;;3.38;1.13;;;8.80;97.90;;;;;;5021813;28;20078;-66
2024/04/05 04:31:20;;;;;;;4.28;1.42;;;8.80;97.90;;;;;;5016640;28;20091;-65
2024/04/05 04:33:46;;;;;;;4.20;1.67;;;8.90;97.60;;;;;;5011954;28;20551;-65
2024/04/05 04:36:12;;;;;;;1.58;0.80;;;8.80;97.60;;;;;;5011315;28;20124;-66
2024/04/05 04:38:41;;;;;;;5.75;1.40;;;8.80;97.70;;;;;;5009224;28;20104;-65
2024/04/05 04:41:06;;;;;;;4.10;0.95;;;8.90;97.60;;;;;;5010533;28;20045;-66
2024/04/05 04:43:32;;;;;;;7.22;1.20;;;8.80;97.70;;;;;;5010864;28;20037;-66
2024/04/05 04:46:00;;;;;;;2.35;1.13;;;8.90;97.80;;;;;;5013136;28;20100;-66
2024/04/05 04:48:26;;;;;;;2.55;0.90;;;8.80;97.80;;;;;;5010987;28;20033;-65
2024/04/05 04:50:54;;;;;;;4.88;0.77;;;8.80;98.00;;;;;;5010460;28;20203;-65
2024/04/05 04:53:20;;;;;;;3.60;1.17;;;8.80;98.00;;;;;;5011836;28;20537;-66
2024/04/05 04:55:46;;;;;;;5.93;1.50;;;8.80;98.00;;;;;;5010863;28;20088;-65
2024/04/05 04:58:16;;;;;;;7.05;1.55;;;8.90;97.80;;;;;;5018145;28;20049;-65
2024/04/05 05:00:42;;;;;;;4.88;1.33;;;8.80;97.80;;;;;;5014993;28;20357;-65
2024/04/05 05:03:07;;;;;;;9.52;1.88;;;8.80;97.90;;;;;;5024638;28;20075;-66
2024/04/05 05:05:33;;;;;;;4.95;1.38;;;8.80;97.90;;;;;;5018933;28;20120;-65
2024/04/05 05:07:58;;;;;;;6.20;1.50;;;8.80;97.80;;;;;;5018327;28;20033;-67
2024/04/05 05:10:24;;;;;;;6.28;1.13;;;8.80;97.90;;;;;;5013651;28;20443;-66
2024/04/05 05:12:49;;;;;;;4.07;1.00;;;8.80;98.10;;;;;;5021225;28;20041;-66
2024/04/05 05:15:15;;;;;;;3.97;1.35;;;8.90;97.90;;;;;;5021595;28;20053;-66
2024/04/05 05:17:40;;;;;;;5.28;1.10;;;8.90;97.80;;;;;;5012331;28;20125;-66
2024/04/05 05:20:11;;;;;;;5.20;1.42;;;8.90;97.90;;;;;;5016007;28;20072;-65
2024/04/05 05:22:37;;;;;;;3.22;1.23;;;8.90;98.10;;;;;;5015190;28;20085;-65
2024/04/05 05:25:03;;;;;;;5.20;1.17;;;8.80;98.10;;;;;;5022263;28;20098;-66
2024/04/05 05:27:28;;;;;;;1.33;0.98;;;8.90;98.30;;;;;;5014950;28;20042;-66
2024/04/05 05:29:53;;;;;;;3.88;1.08;;;8.90;98.30;;;;;;5017561;28;20041;-65
2024/04/05 05:32:19;;;;;;;4.28;1.30;;;8.90;98.20;;;;;;5016246;28;20061;-65
2024/04/05 05:34:44;;;;;;;9.18;1.42;;;8.90;98.30;;;;;;5009667;28;20489;-65
2024/04/05 05:37:10;;;;;;;5.32;1.60;;;9.00;98.10;;;;;;5010891;28;20042;-65
2024/04/05 05:39:35;;;;;;;4.07;1.70;;;8.90;98.10;;;;;;5019513;28;20029;-65
2024/04/05 05:42:01;;;;;;;7.22;1.42;;;8.90;98.10;;;;;;5015899;28;20042;-66
2024/04/05 05:44:26;;;;;;;5.63;1.95;;;9.00;98.20;;;;;;5017901;28;20029;-65
2024/04/05 05:46:52;;;;;;;4.60;1.55;;;9.00;97.90;;;;;;5022116;28;20433;-65
2024/04/05 05:49:17;;;;;;;3.53;1.27;;;9.00;98.00;;;;;;5008831;28;20041;-66
2024/04/05 05:51:43;;;;;;;2.78;0.85;;;9.00;98.10;;;;;;5021586;28;20101;-65
2024/04/05 05:54:08;;;;;;;5.70;1.33;;;9.10;97.90;;;;;;5013703;28;20081;-65
2024/04/05 05:56:35;;;;;;;3.03;1.35;;;9.10;97.90;;;;;;5015455;28;20491;-66
2024/04/05 05:59:00;;;;;;;4.75;1.13;;;9.10;97.90;;;;;;5015547;28;20581;-66
2024/04/05 06:01:26;;;;;;;4.22;1.20;;;9.10;97.90;;;;;;5025838;28;20100;-66
2024/04/05 06:03:51;;;;;;;8.18;1.52;;;9.20;97.90;;;;;;5021892;28;20484;-66
2024/04/05 06:06:17;;;;;;;5.78;1.48;;;9.30;97.80;;;;;;5019799;28;20473;-66
2024/04/05 06:08:44;;;;;;;4.68;1.75;;;9.30;97.60;;;;;;5009423;28;20045;-66
2024/04/05 06:11:09;;;;;;;6.40;1.90;;;9.40;97.20;;;;;;5020745;28;20028;-66
2024/04/05 06:13:35;;;;;;;3.95;1.17;;;9.50;96.90;;;;;;5009121;28;20057;-66
2024/04/05 06:16:00;;;;;;;4.60;1.83;;;9.50;97.20;;;;;;5014378;28;20069;-66
2024/04/05 06:18:28;;;;;;;5.72;1.30;;;9.50;97.30;;;;;;5017668;28;20034;-66
2024/04/05 06:20:55;;;;;;;4.18;0.95;;;9.50;97.30;;;;;;5025603;28;20128;-66
2024/04/05 06:23:21;;;;;;;6.25;1.83;;;9.60;97.00;;;;;;5014636;28;20469;-66
2024/04/05 06:25:55;;;;;;;2.20;1.10;;;9.60;96.90;;;;;;5016258;28;20490;-66
2024/04/05 06:28:21;;;;;;;5.00;1.58;;;9.60;97.00;;;;;;5012811;28;20146;-66
2024/04/05 06:30:46;;;;;;;7.30;1.85;;;9.70;96.90;;;;;;5021646;28;20102;-66
2024/04/05 06:33:12;;;;;;;2.95;1.02;;;9.80;96.60;;;;;;5016688;28;20415;-66
2024/04/05 06:35:37;;;;;;;3.75;1.20;;;9.90;96.50;;;;;;5014792;28;20037;-67
2024/04/05 06:38:03;;;;;;;3.30;1.13;;;10.00;95.90;;;;;;5015267;28;20030;-66
2024/04/05 06:40:28;;;;;;;5.05;1.40;;;10.10;95.80;;;;;;5011352;28;20060;-67
2024/04/05 06:42:54;;;;;;;3.95;1.40;;;10.20;95.80;;;;;;5008751;28;20382;-66
2024/04/05 06:45:19;;;;;;;3.00;1.20;;;10.30;95.70;;;;;;5012462;28;20025;-66
2024/04/05 06:47:45;;;;;;;2.45;0.80;;;10.50;95.80;;;;;;5017291;28;20108;-66
2024/04/05 06:50:11;;;;;;;3.78;1.20;;;10.50;95.50;;;;;;5016512;28;20488;-66
2024/04/05 06:52:36;;;;;;;3.30;0.90;;;10.60;95.50;;;;;;5015733;28;20030;-67
2024/04/05 06:55:02;;;;;;;4.00;1.13;;;10.70;95.70;;;;;;5025611;28;20120;-66
2024/04/05 06:57:28;;;;;;;4.95;1.58;;;10.60;95.80;;;;;;5012439;28;20065;-67
2024/04/05 06:59:53;;;;;;;7.35;1.42;;;10.60;96.10;;;;;;5012733;28;20092;-66
2024/04/05 07:02:20;;;;;;;4.50;1.00;;;10.60;96.50;;;;;;5017993;28;20434;-66
2024/04/05 07:04:46;;;;;;;5.35;1.42;;;10.50;96.70;;;;;;5022026;28;20101;-66
2024/04/05 07:07:12;;;;;;;6.70;1.02;;;10.60;96.90;;;;;;5011509;28;20121;-67
2024/04/05 07:09:37;;;;;;;5.65;1.23;;;10.60;97.10;;;;;;5018057;28;20046;-67
2024/04/05 07:12:04;;;;;;;3.85;1.15;;;10.60;97.30;;;;;;5009227;28;20474;-66
2024/04/05 07:14:30;;;;;;;6.80;1.08;;;10.60;97.30;;;;;;5016078;28;20141;-66
2024/04/05 07:16:56;;;;;;;4.70;1.13;;;10.60;97.40;;;;;;5018962;28;20117;-66
2024/04/05 07:19:23;;;;;;;3.78;1.25;;;10.60;97.60;;;;;;5029494;28;20483;-66
2024/04/05 07:21:49;;;;;;;2.63;0.93;;;10.70;97.70;;;;;;5018513;28;20108;-67
2024/04/05 07:24:15;;;;;;;4.00;1.10;;;10.70;97.80;;;;;;5011523;28;20436;-66
2024/04/05 07:26:42;;;;;;;4.53;1.10;;;10.70;97.80;;;;;;5008875;28;20512;-67
2024/04/05 07:29:09;;;;;;;3.13;0.93;;;10.80;97.90;;;;;;5022908;28;20052;-66
2024/04/05 07:31:37;;;;;;;3.45;1.33;;;10.70;97.80;;;;;;5017431;28;20037;-66
2024/04/05 07:34:04;;;;;;;5.53;1.25;;;10.70;97.60;;;;;;5016445;28;20074;-66
2024/04/05 07:36:30;;;;;;;5.43;1.23;;;10.70;97.70;;;;;;5016950;28;20427;-66
2024/04/05 07:38:55;;;;;;;4.32;1.42;;;10.60;97.70;;;;;;5021612;28;20080;-66
2024/04/05 07:41:21;;;;;;;5.25;1.10;;;10.60;98.00;;;;;;5018323;28;20383;-67
2024/04/05 07:43:48;;;;;;;3.08;1.20;;;10.60;98.10;;;;;;5017217;28;20079;-66
2024/04/05 07:46:14;;;;;;;6.00;1.20;;;10.50;98.40;;;;;;5016205;28;20403;-65
2024/04/05 07:48:39;;;;;;;2.17;0.95;;;10.50;98.70;;;;;;5012346;28;20044;-66
2024/04/05 07:51:05;;;;;;;5.25;1.70;;;10.50;98.90;;;;;;5019552;28;20034;-66
2024/04/05 07:53:30;;;;;;;6.00;1.20;;;10.50;99.10;;;;;;5023732;28;20045;-66
2024/04/05 07:55:56;;;;;;;2.75;1.00;;;10.50;99.20;;;;;;5015580;28;20423;-66
2024/04/05 07:58:22;;;;;;;6.15;2.00;;;10.50;99.10;;;;;;5014140;28;20375;-66
2024/04/05 08:00:48;;;;;;;4.13;1.08;;;10.60;99.20;;;;;;5014781;28;20034;-66
2024/04/05 08:03:14;;;;;;;4.10;1.20;;;10.60;99.10;;;;;;4990501;28;993965;-66
2024/04/05 08:05:40;;;;;;;3.13;1.17;;;10.60;99.10;;;;;;5025069;28;20537;-67
2024/04/05 08:08:05;;;;;;;3.75;1.00;;;10.80;99.20;;;;;;5022257;28;20082;-67
2024/04/05 08:10:31;;;;;;;4.05;1.27;;;10.90;99.20;;;;;;5010761;28;20042;-67
2024/04/05 08:12:57;;;;;;;2.85;1.08;;;11.00;99.20;;;;;;5017683;28;20082;-67
2024/04/05 08:15:23;;;;;;;9.02;1.73;;;10.90;99.00;;;;;;5013201;28;20033;-66
2024/04/05 08:17:49;;;;;;;3.25;0.95;;;11.00;98.90;;;;;;5023390;28;20461;-66
2024/04/05 08:20:15;;;;;;;5.50;1.80;;;11.10;98.80;;;;;;5017124;28;20021;-67
2024/04/05 08:22:40;;;;;;;4.57;1.30;;;11.30;99.00;;;;;;5020733;28;20033;-66
2024/04/05 08:25:07;;;;;;;4.45;1.50;;;11.70;99.40;;;;;;5012997;28;20500;-66
2024/04/05 08:27:33;;;;;;;5.15;1.48;;;11.80;98.20;;;;;;5010295;28;20600;-67
2024/04/05 08:29:58;;;;;;;5.47;1.67;;;12.40;98.60;;;;;;5007916;28;20045;-67
2024/04/05 08:32:24;;;;;;;4.57;1.52;;;12.60;98.20;;;;;;5012056;28;20030;-67
2024/04/05 08:34:50;;;;;;;2.10;1.13;;;12.60;97.50;;;;;;5013356;28;20041;-67
2024/04/05 08:37:15;;;;;;;6.13;1.48;;;12.60;96.00;;;;;;5017355;28;20088;-66
2024/04/05 08:39:41;;;;;;;6.05;1.00;;;13.00;96.80;;;;;;5011621;28;20146;-67
2024/04/05 08:42:17;;;;;;;8.80;1.50;;;12.90;95.30;;;;;;5009860;28;20051;-68
2024/04/05 08:44:48;;;;;;;4.75;1.20;;;13.00;95.00;;;;;;5007842;28;20030;-67
2024/04/05 08:47:13;;;;;;;4.93;1.33;;;13.10;93.80;;;;;;5011465;28;20079;-67
2024/04/05 08:49:40;;;;;;;5.20;1.52;;;13.60;94.70;;;;;;5011519;28;20462;-67
2024/04/05 08:52:06;;;;;;;4.50;1.45;;;13.80;93.40;;;;;;5013989;28;20025;-67
2024/04/05 08:54:32;;;;;;;3.05;1.40;;;13.40;92.70;;;;;;5014193;28;20040;-68
2024/04/05 08:56:59;;;;;;;4.18;1.13;;;13.30;93.60;;;;;;5007010;28;20049;-67
2024/04/05 08:59:29;;;;;;;2.90;1.00;;;13.20;93.70;;;;;;5015073;28;20207;-67
2024/04/05 09:01:58;;;;;;;2.47;0.90;;;13.10;93.70;;;;;;5012726;28;20041;-66
2024/04/05 09:04:25;;;;;;;3.53;1.60;;;13.20;94.20;;;;;;5013609;28;20124;-66
2024/04/05 09:06:51;;;;;;;4.45;1.25;;;13.30;94.20;;;;;;5015788;28;20443;-66
2024/04/05 09:09:33;;;;;;;3.60;1.08;;;13.50;94.10;;;;;;5010005;28;20037;-67
2024/04/05 09:12:10;;;;;;;9.32;2.03;;;13.50;93.50;;;;;;5015485;28;20346;-67
2024/04/05 09:14:37;;;;;;;5.70;1.42;;;13.80;93.70;;;;;;5016478;28;20441;-67
2024/04/05 09:17:13;;;;;;;2.88;0.95;;;13.90;93.10;;;;;;5019204;28;20152;-67
2024/04/05 09:19:38;;;;;;;4.47;1.10;;;14.00;93.20;;;;;;5019802;28;20025;-66
2024/04/05 09:22:04;;;;;;;8.52;1.13;;;13.80;92.10;;;;;;5011756;28;20055;-67
2024/04/05 09:24:30;;;;;;;3.78;1.17;;;13.90;92.50;;;;;;5015903;28;20503;-67
2024/04/05 09:27:00;;;;;;;3.75;1.20;;;14.30;92.50;;;;;;5007050;28;20046;-67
2024/04/05 09:29:26;;;;;;;2.40;0.85;;;14.30;91.90;;;;;;5012094;28;20608;-67
2024/04/05 09:31:52;;;;;;;3.28;1.10;;;14.40;92.20;;;;;;5009068;28;20041;-67
2024/04/05 09:34:19;;;;;;;3.67;0.77;;;14.40;92.20;;;;;;5022015;28;20037;-67
2024/04/05 09:36:45;;;;;;;5.50;1.23;;;14.00;91.30;;;;;;5011822;28;20034;-67
2024/04/05 09:39:16;;;;;;;3.50;1.10;;;14.10;91.80;;;;;;5012707;28;20112;-67
2024/04/05 09:41:42;;;;;;;4.00;1.52;;;14.10;91.70;;;;;;5008191;28;20041;-67
2024/04/05 09:44:08;;;;;;;3.00;0.95;;;14.30;92.60;;;;;;5019508;28;20112;-67
2024/04/05 09:46:35;;;;;;;1.75;0.82;;;14.10;91.50;;;;;;5012822;28;20267;-67
2024/04/05 09:49:02;;;;;;;3.90;1.05;;;14.30;92.30;;;;;;5013556;28;20038;-68
2024/04/05 09:51:44;;;;;;;3.42;1.10;;;14.50;92.40;;;;;;5018054;28;20419;-67
2024/04/05 09:54:10;;;;;;;3.38;1.40;;;14.70;92.00;;;;;;5018988;28;20047;-67
2024/04/05 09:56:38;;;;;;;3.45;1.15;;;14.70;91.30;;;;;;5014772;28;20142;-67
2024/04/05 09:59:12;;;;;;;3.78;1.08;;;14.60;91.30;;;;;;5016617;28;20355;-67
2024/04/05 10:01:41;;;;;;;3.13;1.15;;;14.80;90.90;;;;;;5020411;28;20033;-67
2024/04/05 10:04:07;;;;;;;5.15;0.95;;;14.80;90.70;;;;;;5020211;28;20099;-67
2024/04/05 10:06:38;;;;;;;3.58;0.88;;;14.90;90.60;;;;;;5015023;28;20104;-67
2024/04/05 10:09:21;;;;;;;2.13;0.88;;;14.80;90.10;;;;;;5013991;28;20633;-67
2024/04/05 10:11:52;;;;;;;3.20;1.13;;;15.00;91.00;;;;;;5011415;28;20034;-67
2024/04/05 10:14:28;;;;;;;3.88;1.00;;;15.00;89.60;;;;;;5010163;28;20493;-67
2024/04/05 10:17:08;;;;;;;5.22;1.20;;;15.10;90.20;;;;;;5012210;28;20109;-67
2024/04/05 10:19:36;;;;;;;3.08;1.20;;;15.10;89.30;;;;;;5011845;28;20086;-67
2024/04/05 10:22:23;;;;;;;5.00;1.15;;;15.10;88.90;;;;;;5011574;28;20033;-68
2024/04/05 10:24:49;;;;;;;2.70;0.80;;;14.90;89.20;;;;;;5011884;28;20157;-67
2024/04/05 10:27:22;;;;;;;3.00;0.90;;;15.00;89.50;;;;;;5013829;28;20066;-68
2024/04/05 10:30:02;;;;;;;2.28;0.85;;;15.10;89.80;;;;;;5007543;28;20030;-67
2024/04/05 10:32:28;;;;;;;5.18;1.35;;;15.00;89.30;;;;;;5016321;28;20379;-67
2024/04/05 10:35:08;;;;;;;3.28;1.10;;;15.10;89.50;;;;;;5018767;28;20038;-67
2024/04/05 10:37:35;;;;;;;2.30;0.60;;;15.00;89.40;;;;;;5018134;28;20022;-66
2024/04/05 10:40:10;;;;;;;2.67;0.70;;;15.00;89.90;;;;;;5014380;28;20042;-67
2024/04/05 10:42:36;;;;;;;1.85;0.70;;;15.00;90.10;;;;;;5021772;28;20038;-67
2024/04/05 10:45:04;;;;;;;2.10;1.27;;;15.10;90.50;;;;;;5017696;28;20049;-67
2024/04/05 10:47:31;;;;;;;1.05;0.70;;;15.10;90.30;;;;;;5018832;28;20064;-66
2024/04/05 10:50:02;;;;;;;3.20;0.98;;;15.00;89.80;;;;;;5012786;28;20129;-67
2024/04/05 10:52:30;;;;;;;4.15;0.88;;;14.80;90.30;;;;;;5013994;28;20034;-67
2024/04/05 10:54:56;;;;;;;2.53;0.70;;;14.70;89.90;;;;;;5011114;28;20405;-67
2024/04/05 10:57:21;;;;;;;4.35;0.95;;;14.80;90.20;;;;;;5018964;28;20041;-66
2024/04/05 10:59:47;;;;;;;3.47;0.95;;;14.90;90.90;;;;;;5020531;28;20403;-67
2024/04/05 11:02:13;;;;;;;1.83;0.70;;;15.00;91.00;;;;;;5020484;28;20204;-66
2024/04/05 11:04:39;;;;;;;2.28;0.80;;;15.00;90.60;;;;;;5014606;28;20470;-67
2024/04/05 11:07:04;;;;;;;3.55;0.70;;;15.10;90.10;;;;;;5016533;28;20037;-67
2024/04/05 11:09:33;;;;;;;3.70;0.70;;;15.20;90.40;;;;;;5013045;28;20037;-66
2024/04/05 11:11:59;;;;;;;3.17;0.70;;;15.10;89.10;;;;;;5016111;28;20056;-67
2024/04/05 11:14:25;;;;;;;1.80;0.80;;;15.20;90.10;;;;;;5012955;28;20088;-67
2024/04/05 11:16:58;;;;;;;3.83;0.70;;;15.10;89.00;;;;;;5011858;28;20129;-67
2024/04/05 11:19:27;;;;;;;2.53;1.02;;;15.10;89.30;;;;;;5020077;28;20470;-66
2024/04/05 11:22:03;;;;;;;2.10;0.85;;;15.10;89.80;;;;;;5015591;28;20067;-66
2024/04/05 11:24:29;;;;;;;2.25;0.68;;;15.00;89.40;;;;;;5018351;28;20100;-66
2024/04/05 11:26:54;;;;;;;3.15;0.90;;;15.00;89.90;;;;;;5017567;28;20129;-67
2024/04/05 11:29:20;;;;;;;1.02;0.68;;;14.80;90.30;;;;;;5012096;28;20395;-66
2024/04/05 11:31:46;;;;;;;3.05;0.70;;;14.80;91.90;;;;;;5019095;28;20030;-66
2024/04/05 11:34:11;;;;;;;1.52;0.70;;;14.70;92.30;;;;;;5017757;28;20120;-68
2024/04/05 11:36:37;;;;;;;1.40;0.60;;;14.60;92.50;;;;;;5017431;28;20529;-67
2024/04/05 11:39:04;;;;;;;1.45;0.50;;;14.50;92.60;;;;;;5018912;28;20049;-67
2024/04/05 11:41:29;;;;;;;5.18;0.95;;;14.50;92.70;;;;;;5019565;28;20121;-66
2024/04/05 11:43:55;;;;;;;2.28;0.50;;;14.40;93.10;;;;;;5014881;28;20131;-66
2024/04/05 11:46:23;;;;;;;4.85;0.60;;;14.30;93.10;;;;;;5012927;28;20394;-67
2024/04/05 11:48:48;;;;;;;2.78;0.75;;;14.30;93.30;;;;;;5021125;28;20120;-66
2024/04/05 11:51:14;;;;;;;2.88;0.90;;;14.30;93.40;;;;;;5024541;28;20390;-66
2024/04/05 11:53:39;;;;;;;0.30;0.30;;;14.40;92.90;;;;;;5017651;28;20095;-66
2024/04/05 11:56:05;;;;;;;1.58;0.52;;;14.40;92.60;;;;;;5018542;28;20077;-67
2024/04/05 11:58:33;;;;;;;3.28;0.73;;;14.40;92.80;;;;;;5026228;28;20127;-66
2024/04/05 12:00:59;;;;;;;2.50;0.60;;;14.40;92.80;;;;;;5015248;28;20067;-66
2024/04/05 12:03:24;;;;;;;3.30;1.00;;;14.30;93.00;;;;;;5020307;28;20041;-66
2024/04/05 12:05:53;;;;;;;3.70;0.85;;;14.30;93.10;;;;;;5021518;28;20400;-67
2024/04/05 12:08:18;;;;;;;2.88;0.73;;;14.30;92.90;;;;;;5019590;28;20029;-66
2024/04/05 12:10:43;;;;;;;3.92;0.98;;;14.30;92.50;;;;;;5016893;28;20037;-67
2024/04/05 12:13:09;;;;;;;1.27;0.70;;;14.30;92.90;;;;;;5019289;28;20538;-66
2024/04/05 12:15:38;;;;;;;2.08;0.70;;;14.20;92.60;;;;;;5015200;28;20045;-67
2024/04/05 12:18:05;;;;;;;2.72;0.73;;;14.30;93.00;;;;;;5024364;28;20393;-67
2024/04/05 12:20:30;;;;;;;1.00;0.57;;;14.20;93.40;;;;;;5022990;28;20033;-66
2024/04/05 12:22:55;;;;;;;0.77;0.47;;;14.20;93.20;;;;;;5020583;28;20037;-66
2024/04/05 12:25:22;;;;;;;1.45;0.70;;;14.10;94.00;;;;;;5022594;28;20396;-67
2024/04/05 12:27:48;;;;;;;0.68;0.47;;;14.00;94.20;;;;;;5018741;28;20033;-67
2024/04/05 12:30:14;;;;;;;1.30;0.35;;;14.00;93.40;;;;;;5022255;28;20453;-66
2024/04/05 12:32:39;;;;;;;1.45;0.60;;;14.00;93.40;;;;;;5024291;28;20306;-66
2024/04/05 12:35:06;;;;;;;0.50;0.50;;;14.00;93.30;;;;;;5019921;28;20072;-67
2024/04/05 12:37:37;;;;;;;1.58;0.60;;;13.90;94.30;;;;;;5022727;28;20235;-67
2024/04/05 12:40:15;;;;;;;3.78;1.20;;;13.80;95.10;;;;;;5022518;28;20398;-66
2024/04/05 12:42:41;;;;;;;1.92;0.75;;;13.80;95.40;;;;;;5015253;28;20030;-66
2024/04/05 12:45:08;;;;;;;0.68;0.65;;;13.80;95.70;;;;;;5015799;28;20045;-66
2024/04/05 12:47:35;;;;;;;2.22;0.75;;;13.80;95.80;;;;;;5009608;28;20030;-67
2024/04/05 12:50:02;;;;;;;3.80;1.10;;;13.80;96.30;;;;;;5012631;28;20032;-66